Time;durP1;ratioP1;P1;durP2;ratioP2;P2;SDS_P1;SDS_P2;PMS_P1;PMS_P2;Temp;Humidity;BMP_temperature;BMP_pressure;BME280_temperature;BME280_humidity;BME280_pressure;Samples;Min_cycle;Max_cycle;Signal;HPM_P1;HPM_P2
2023/06/24 00:00:59;;;;;;;8.70;8.20;;;21.50;16.90;;;;;;5051288;28;20461;-61
2023/06/24 00:03:26;;;;;;;7.90;7.50;;;21.40;17.20;;;;;;5050569;28;20462;-61
2023/06/24 00:05:53;;;;;;;8.10;7.60;;;21.40;17.30;;;;;;5051169;28;20229;-61
2023/06/24 00:08:20;;;;;;;9.10;8.53;;;21.40;17.20;;;;;;5050815;28;20907;-61
2023/06/24 00:10:47;;;;;;;9.37;8.87;;;21.40;17.30;;;;;;5050965;28;20469;-61
2023/06/24 00:13:14;;;;;;;8.63;8.20;;;21.40;17.40;;;;;;5050273;28;20966;-61
2023/06/24 00:15:43;;;;;;;8.73;8.23;;;21.40;17.40;;;;;;5050953;28;20786;-61
2023/06/24 00:18:09;;;;;;;8.73;8.20;;;21.40;17.50;;;;;;5050716;28;20433;-61
2023/06/24 00:20:35;;;;;;;8.70;8.20;;;21.40;17.60;;;;;;5050903;28;20897;-61
2023/06/24 00:23:01;;;;;;;8.77;8.27;;;21.30;17.70;;;;;;5050106;28;20505;-61
2023/06/24 00:25:27;;;;;;;9.10;8.60;;;21.40;17.90;;;;;;5050920;28;20191;-61
2023/06/24 00:27:52;;;;;;;9.63;9.13;;;21.40;18.10;;;;;;5050702;28;20179;-62
2023/06/24 00:30:18;;;;;;;10.03;9.23;;;21.30;17.80;;;;;;5050784;28;20183;-62
2023/06/24 00:32:44;;;;;;;8.97;8.47;;;21.30;17.90;;;;;;5050136;28;20202;-61
2023/06/24 00:35:12;;;;;;;9.30;8.80;;;21.30;18.00;;;;;;5050690;28;20182;-61
2023/06/24 00:37:38;;;;;;;8.47;7.97;;;21.30;18.10;;;;;;5050702;28;20502;-61
2023/06/24 00:40:04;;;;;;;9.47;8.77;;;21.30;18.30;;;;;;5050745;28;20446;-61
2023/06/24 00:42:31;;;;;;;8.57;7.97;;;21.20;18.30;;;;;;5054246;28;20866;-61
2023/06/24 00:44:56;;;;;;;7.73;7.23;;;21.10;18.20;;;;;;5054756;28;20418;-61
2023/06/24 00:47:23;;;;;;;8.83;8.33;;;20.90;18.60;;;;;;5054603;28;20445;-61
2023/06/24 00:49:49;;;;;;;8.77;8.27;;;20.60;19.20;;;;;;5054563;28;20222;-62
2023/06/24 00:52:15;;;;;;;9.70;9.10;;;20.40;19.50;;;;;;5053834;28;20461;-61
2023/06/24 00:54:44;;;;;;;9.40;8.90;;;20.50;19.70;;;;;;5054603;28;20270;-61
2023/06/24 00:57:10;;;;;;;9.30;8.70;;;20.60;19.50;;;;;;5054392;28;20419;-61
2023/06/24 00:59:37;;;;;;;9.20;8.60;;;20.60;19.70;;;;;;5054364;28;20513;-60
2023/06/24 01:02:04;;;;;;;9.50;8.90;;;20.70;19.80;;;;;;5055087;28;20403;-61
2023/06/24 01:04:33;;;;;;;9.17;8.57;;;20.80;19.90;;;;;;5054279;28;20468;-61
2023/06/24 01:06:59;;;;;;;9.27;8.77;;;20.80;20.00;;;;;;5054228;28;20484;-60
2023/06/24 01:09:25;;;;;;;9.37;8.67;;;20.80;20.30;;;;;;5054192;28;20972;-61
2023/06/24 01:11:51;;;;;;;9.50;8.90;;;20.90;20.30;;;;;;5053637;28;20446;-61
2023/06/24 01:14:22;;;;;;;9.63;9.13;;;20.80;19.90;;;;;;5053932;28;20470;-60
2023/06/24 01:16:48;;;;;;;10.20;9.60;;;20.70;20.30;;;;;;5054138;28;20418;-60
2023/06/24 01:19:28;;;;;;;10.90;10.20;;;20.40;20.70;;;;;;5053929;28;20421;-61
2023/06/24 01:21:54;;;;;;;9.47;8.97;;;20.20;21.80;;;;;;5053430;28;20175;-60
2023/06/24 01:24:47;;;;;;;9.23;8.73;;;20.30;21.70;;;;;;5053933;28;20433;-60
2023/06/24 01:27:26;;;;;;;9.63;9.03;;;20.40;21.40;;;;;;5054016;28;20190;-61
2023/06/24 01:30:02;;;;;;;9.47;8.97;;;20.40;21.10;;;;;;5054009;28;20414;-61
2023/06/24 01:32:37;;;;;;;10.37;9.50;;;20.50;21.30;;;;;;5053472;28;20432;-62
2023/06/24 01:35:16;;;;;;;10.03;9.43;;;20.60;21.50;;;;;;5053730;28;20414;-61
2023/06/24 01:37:45;;;;;;;10.27;9.50;;;20.60;21.20;;;;;;5053947;28;20849;-61
2023/06/24 01:40:20;;;;;;;10.63;10.03;;;20.70;21.10;;;;;;5054909;28;20411;-61
2023/06/24 01:42:47;;;;;;;10.07;9.47;;;20.70;20.90;;;;;;5053204;28;20433;-62
2023/06/24 01:45:16;;;;;;;8.70;8.30;;;20.70;20.60;;;;;;5053538;28;20850;-61
2023/06/24 01:47:45;;;;;;;10.30;9.70;;;20.70;20.40;;;;;;5053601;28;20442;-62
2023/06/24 01:50:12;;;;;;;10.17;9.47;;;20.70;20.40;;;;;;5052771;28;20406;-62
2023/06/24 01:52:43;;;;;;;9.07;8.57;;;20.40;21.70;;;;;;5052105;28;20478;-61
2023/06/24 01:55:12;;;;;;;10.20;9.60;;;20.00;22.30;;;;;;5053865;28;20473;-61
2023/06/24 01:57:40;;;;;;;10.73;10.13;;;19.80;22.90;;;;;;5053768;28;20464;-61
2023/06/24 02:00:09;;;;;;;10.37;9.73;;;19.60;23.30;;;;;;5053440;28;20410;-61
2023/06/24 02:02:36;;;;;;;9.70;9.10;;;19.40;23.80;;;;;;5052870;28;20421;-62
2023/06/24 02:05:04;;;;;;;10.57;9.97;;;19.30;24.10;;;;;;5053224;28;20417;-61
2023/06/24 02:07:32;;;;;;;11.07;10.37;;;19.10;24.40;;;;;;5053244;28;20433;-62
2023/06/24 02:10:00;;;;;;;10.90;10.30;;;19.00;24.60;;;;;;5053272;28;20418;-61
2023/06/24 02:12:27;;;;;;;10.70;10.10;;;19.00;24.80;;;;;;5052625;28;20791;-61
2023/06/24 02:14:56;;;;;;;10.37;9.80;;;19.00;24.80;;;;;;5053071;28;20500;-61
2023/06/24 02:17:24;;;;;;;11.13;10.53;;;19.00;24.80;;;;;;5053083;28;20450;-61
2023/06/24 02:19:50;;;;;;;11.37;10.70;;;19.00;24.90;;;;;;5053091;28;20410;-61
2023/06/24 02:22:17;;;;;;;10.73;10.13;;;19.00;24.90;;;;;;5051654;28;20483;-61
2023/06/24 02:24:44;;;;;;;10.27;9.70;;;19.10;24.80;;;;;;5052059;28;20514;-60
2023/06/24 02:27:12;;;;;;;10.53;9.97;;;19.20;24.40;;;;;;5052815;28;20749;-60
2023/06/24 02:29:40;;;;;;;11.00;10.40;;;19.40;24.60;;;;;;5052749;28;20771;-61
2023/06/24 02:32:06;;;;;;;10.73;10.03;;;19.50;24.00;;;;;;5052360;28;20409;-62
2023/06/24 02:34:32;;;;;;;10.13;9.53;;;19.70;23.80;;;;;;5052515;28;20458;-62
2023/06/24 02:36:58;;;;;;;11.57;10.77;;;19.80;23.30;;;;;;5052050;28;20925;-61
2023/06/24 02:39:24;;;;;;;11.47;10.83;;;19.90;23.00;;;;;;5052618;28;20175;-62
2023/06/24 02:41:49;;;;;;;12.67;11.87;;;19.80;23.20;;;;;;5051778;28;20891;-62
2023/06/24 02:44:16;;;;;;;11.60;10.90;;;19.60;23.50;;;;;;5052527;28;20180;-63
2023/06/24 02:46:44;;;;;;;10.50;9.90;;;19.70;23.80;;;;;;5052274;28;20219;-65
2023/06/24 02:49:11;;;;;;;11.33;10.63;;;19.60;23.70;;;;;;5054198;28;20891;-64
2023/06/24 02:51:39;;;;;;;11.47;10.87;;;19.60;24.10;;;;;;5051418;28;20968;-63
2023/06/24 02:54:05;;;;;;;11.40;10.50;;;19.60;24.10;;;;;;5052813;28;20460;-64
2023/06/24 02:56:32;;;;;;;10.37;9.57;;;19.50;24.20;;;;;;5052749;28;20418;-63
2023/06/24 02:58:58;;;;;;;11.60;10.87;;;19.50;24.10;;;;;;5052550;28;20780;-64
2023/06/24 03:01:26;;;;;;;11.57;10.87;;;19.60;23.90;;;;;;5051118;28;20727;-64
2023/06/24 03:03:55;;;;;;;10.80;10.10;;;19.50;23.90;;;;;;5051780;28;20749;-65
2023/06/24 03:06:21;;;;;;;11.07;10.47;;;19.50;24.30;;;;;;5051496;28;20441;-60
2023/06/24 03:08:48;;;;;;;10.43;9.90;;;19.60;24.00;;;;;;5051243;28;20415;-62
2023/06/24 03:11:14;;;;;;;11.37;10.77;;;19.60;23.80;;;;;;5051339;28;20958;-62
2023/06/24 03:13:40;;;;;;;10.90;10.10;;;19.80;23.60;;;;;;5052161;28;20679;-62
2023/06/24 03:16:06;;;;;;;10.40;9.80;;;19.80;23.40;;;;;;5051044;28;20207;-62
2023/06/24 03:18:31;;;;;;;10.77;10.07;;;19.90;23.10;;;;;;5051955;28;20481;-61
2023/06/24 03:20:57;;;;;;;11.40;10.70;;;20.00;23.30;;;;;;5051794;28;20187;-63
2023/06/24 03:23:23;;;;;;;11.00;10.40;;;20.00;23.00;;;;;;5050662;28;20240;-62
2023/06/24 03:25:48;;;;;;;11.17;10.53;;;20.10;23.00;;;;;;5051933;28;20491;-63
2023/06/24 03:28:14;;;;;;;11.30;10.60;;;20.10;23.00;;;;;;5051846;28;20278;-62
2023/06/24 03:30:40;;;;;;;10.93;10.17;;;19.90;22.60;;;;;;5051079;28;20220;-62
2023/06/24 03:33:06;;;;;;;11.30;10.60;;;19.90;22.70;;;;;;5050901;28;20667;-60
2023/06/24 03:35:32;;;;;;;11.83;11.13;;;19.60;23.40;;;;;;5050717;28;20634;-61
2023/06/24 03:37:58;;;;;;;10.97;10.27;;;19.60;23.60;;;;;;5050607;28;20184;-60
2023/06/24 03:40:23;;;;;;;10.57;10.00;;;19.40;23.50;;;;;;5051551;28;20513;-61
2023/06/24 03:42:49;;;;;;;10.07;9.47;;;19.40;23.60;;;;;;5050677;28;20417;-60
2023/06/24 03:45:15;;;;;;;10.47;9.90;;;19.40;23.90;;;;;;5051240;28;20207;-60
2023/06/24 03:47:40;;;;;;;10.27;9.67;;;19.30;24.00;;;;;;5050530;28;20184;-61
2023/06/24 03:50:07;;;;;;;10.30;9.50;;;19.30;24.00;;;;;;5050441;28;20233;-60
2023/06/24 03:52:32;;;;;;;10.27;9.23;;;19.30;23.90;;;;;;5049184;28;20641;-60
2023/06/24 03:54:58;;;;;;;10.37;9.53;;;19.30;23.90;;;;;;5051264;28;20414;-61
2023/06/24 03:57:24;;;;;;;9.97;9.17;;;19.30;23.60;;;;;;5049889;28;20183;-61
2023/06/24 03:59:49;;;;;;;10.43;9.83;;;19.30;23.50;;;;;;5051167;28;20175;-62
2023/06/24 04:02:15;;;;;;;10.27;9.67;;;19.20;23.70;;;;;;5050528;28;20192;-61
2023/06/24 04:04:41;;;;;;;10.20;9.60;;;19.20;23.80;;;;;;5052221;28;20539;-60
2023/06/24 04:07:06;;;;;;;10.33;9.63;;;19.20;23.90;;;;;;5050914;28;20183;-62
2023/06/24 04:09:35;;;;;;;10.50;9.90;;;19.20;23.90;;;;;;5051101;28;20184;-62
2023/06/24 04:12:01;;;;;;;9.60;9.10;;;19.30;24.00;;;;;;5050347;28;20202;-62
2023/06/24 04:14:28;;;;;;;11.17;10.30;;;19.30;23.70;;;;;;5051675;28;20462;-62
2023/06/24 04:16:54;;;;;;;10.43;9.90;;;19.30;23.60;;;;;;5049021;28;20465;-62
2023/06/24 04:19:20;;;;;;;10.93;10.23;;;19.30;23.50;;;;;;5050928;28;20833;-61
2023/06/24 04:21:45;;;;;;;10.70;10.10;;;19.30;23.60;;;;;;5050520;28;20171;-62
2023/06/24 04:24:11;;;;;;;10.83;10.13;;;19.30;23.80;;;;;;5049028;28;20289;-62
2023/06/24 04:26:36;;;;;;;10.60;9.93;;;19.40;23.80;;;;;;5050723;28;20203;-60
2023/06/24 04:29:02;;;;;;;10.63;9.97;;;19.40;23.90;;;;;;5050732;28;20294;-59
2023/06/24 04:31:28;;;;;;;11.03;10.33;;;19.40;23.80;;;;;;5049631;28;20193;-59
2023/06/24 04:33:54;;;;;;;10.07;9.53;;;19.40;24.10;;;;;;5050097;28;20612;-59
2023/06/24 04:36:19;;;;;;;10.53;9.93;;;19.40;23.90;;;;;;5049442;28;20184;-59
2023/06/24 04:38:45;;;;;;;10.30;9.70;;;19.30;23.90;;;;;;5050729;28;20476;-59
2023/06/24 04:41:10;;;;;;;11.67;10.97;;;19.30;24.10;;;;;;5049744;28;20265;-59
2023/06/24 04:43:36;;;;;;;9.90;9.33;;;19.30;24.10;;;;;;5050662;28;20668;-59
2023/06/24 04:46:02;;;;;;;10.70;10.10;;;19.40;24.10;;;;;;5049604;28;20287;-58
2023/06/24 04:48:27;;;;;;;11.67;10.80;;;19.40;24.00;;;;;;5049834;28;20187;-58
2023/06/24 04:50:54;;;;;;;11.00;10.20;;;19.40;24.40;;;;;;5049822;28;20184;-58
2023/06/24 04:53:20;;;;;;;10.40;9.80;;;19.40;24.50;;;;;;5049792;28;20211;-62
2023/06/24 04:55:46;;;;;;;11.03;10.43;;;19.40;24.30;;;;;;5050571;28;20418;-58
2023/06/24 04:58:13;;;;;;;10.30;9.60;;;19.50;24.30;;;;;;5049588;28;20428;-57
2023/06/24 05:00:39;;;;;;;10.90;10.10;;;19.50;24.30;;;;;;5050462;28;20527;-57
2023/06/24 05:03:04;;;;;;;11.17;10.47;;;19.50;24.40;;;;;;5049855;28;20507;-58
2023/06/24 05:05:30;;;;;;;9.80;9.30;;;19.50;24.30;;;;;;5050515;28;20234;-58
2023/06/24 05:07:56;;;;;;;10.07;9.47;;;19.60;24.50;;;;;;5050179;28;20215;-58
2023/06/24 05:10:22;;;;;;;10.20;9.60;;;19.60;24.40;;;;;;5050336;28;20790;-59
2023/06/24 05:12:47;;;;;;;9.47;8.90;;;19.60;24.40;;;;;;5050094;28;20668;-58
2023/06/24 05:15:13;;;;;;;10.43;9.73;;;19.60;24.20;;;;;;5050399;28;20210;-58
2023/06/24 05:17:39;;;;;;;10.87;10.07;;;19.50;24.20;;;;;;5050260;28;20198;-59
2023/06/24 05:20:06;;;;;;;9.90;9.30;;;19.60;24.50;;;;;;5050404;28;20237;-59
2023/06/24 05:22:31;;;;;;;11.03;10.40;;;19.50;24.60;;;;;;5050178;28;20419;-58
2023/06/24 05:24:57;;;;;;;11.10;10.30;;;19.50;24.50;;;;;;5050590;28;20472;-58
2023/06/24 05:27:23;;;;;;;11.50;10.90;;;19.60;24.50;;;;;;5051992;28;20552;-59
2023/06/24 05:29:48;;;;;;;10.23;9.67;;;19.60;24.50;;;;;;5053418;28;20176;-59
2023/06/24 05:32:14;;;;;;;11.00;10.30;;;19.60;24.60;;;;;;5050666;28;20728;-59
2023/06/24 05:34:40;;;;;;;10.53;10.00;;;19.50;24.80;;;;;;5054249;28;20211;-59
2023/06/24 05:37:05;;;;;;;11.10;10.30;;;19.50;25.00;;;;;;5053754;28;20784;-59
2023/06/24 05:39:31;;;;;;;11.77;11.07;;;19.60;24.80;;;;;;5051568;28;20191;-59
2023/06/24 05:41:57;;;;;;;12.20;11.50;;;19.50;25.10;;;;;;5051640;28;20187;-59
2023/06/24 05:44:23;;;;;;;10.93;10.33;;;19.60;24.90;;;;;;5053011;28;20194;-59
2023/06/24 05:46:49;;;;;;;11.13;10.33;;;19.60;24.80;;;;;;5053085;28;20219;-59
2023/06/24 05:49:14;;;;;;;11.13;10.00;;;19.70;24.60;;;;;;5053502;28;20192;-59
2023/06/24 05:51:40;;;;;;;9.63;9.13;;;19.80;24.20;;;;;;5053155;28;20410;-59
2023/06/24 05:54:07;;;;;;;10.37;9.63;;;19.90;24.10;;;;;;5053425;28;20218;-59
2023/06/24 05:56:33;;;;;;;10.00;9.40;;;20.00;23.80;;;;;;5051639;28;20458;-59
2023/06/24 05:58:59;;;;;;;10.10;9.60;;;20.00;23.60;;;;;;5052913;28;20457;-59
2023/06/24 06:01:25;;;;;;;10.40;9.80;;;20.00;23.40;;;;;;5065735;28;20433;-59
2023/06/24 06:03:50;;;;;;;9.90;9.37;;;20.10;23.30;;;;;;5071482;28;20258;-62
2023/06/24 06:06:16;;;;;;;10.00;9.50;;;20.20;23.80;;;;;;5071595;28;20252;-61
2023/06/24 06:08:41;;;;;;;10.63;9.63;;;20.20;23.10;;;;;;5071541;28;20181;-61
2023/06/24 06:11:07;;;;;;;17.67;16.27;;;20.20;23.40;;;;;;5070936;28;20644;-62
2023/06/24 06:13:33;;;;;;;10.70;10.10;;;20.30;22.90;;;;;;5071172;28;20316;-62
2023/06/24 06:15:59;;;;;;;9.17;8.70;;;20.40;22.40;;;;;;5071425;28;20308;-62
2023/06/24 06:18:24;;;;;;;10.33;9.50;;;20.50;22.00;;;;;;5072938;28;20419;-62
2023/06/24 06:20:50;;;;;;;9.53;9.00;;;20.50;22.00;;;;;;5072273;28;20186;-60
2023/06/24 06:23:16;;;;;;;10.07;9.47;;;20.50;22.10;;;;;;5073557;28;20258;-59
2023/06/24 06:25:42;;;;;;;10.20;9.30;;;20.60;22.10;;;;;;5072986;28;20206;-60
2023/06/24 06:28:08;;;;;;;9.57;9.07;;;20.70;22.20;;;;;;5054940;28;20941;-60
2023/06/24 06:30:34;;;;;;;10.90;10.00;;;20.80;21.60;;;;;;5051965;28;20426;-60
2023/06/24 06:33:00;;;;;;;10.90;10.10;;;20.80;21.30;;;;;;5051421;28;20204;-57
2023/06/24 06:35:25;;;;;;;9.70;9.00;;;20.90;21.30;;;;;;5051467;28;20184;-58
2023/06/24 06:37:54;;;;;;;8.90;8.40;;;21.00;21.80;;;;;;5051763;28;20613;-58
2023/06/24 06:40:20;;;;;;;9.13;8.63;;;21.10;20.60;;;;;;5051627;28;20183;-58
2023/06/24 06:42:46;;;;;;;8.23;7.83;;;21.20;19.80;;;;;;5051447;28;20832;-58
2023/06/24 06:45:12;;;;;;;8.37;7.97;;;21.20;18.90;;;;;;5051643;28;20418;-58
2023/06/24 06:47:37;;;;;;;8.40;7.93;;;21.30;18.50;;;;;;5051923;28;20414;-58
2023/06/24 06:50:03;;;;;;;9.63;8.97;;;21.40;18.10;;;;;;5051245;28;20188;-58
2023/06/24 06:52:29;;;;;;;7.55;7.15;;;21.40;18.10;;;;;;5051057;28;20362;-58
2023/06/24 06:54:55;;;;;;;8.90;8.27;;;21.40;18.20;;;;;;5051608;28;20500;-58
2023/06/24 06:57:21;;;;;;;8.07;7.50;;;21.50;17.50;;;;;;5051585;28;20547;-59
2023/06/24 06:59:46;;;;;;;8.10;7.70;;;21.50;17.10;;;;;;5051518;28;20414;-58
2023/06/24 07:02:12;;;;;;;7.60;7.10;;;21.50;17.30;;;;;;5050786;28;20585;-57
2023/06/24 07:04:38;;;;;;;7.87;7.47;;;21.60;16.90;;;;;;5051362;28;20274;-57
2023/06/24 07:07:03;;;;;;;8.40;7.80;;;21.70;16.40;;;;;;5051763;28;20184;-57
2023/06/24 07:09:29;;;;;;;7.60;7.10;;;21.70;16.40;;;;;;5052135;28;20720;-57
2023/06/24 07:11:55;;;;;;;7.80;7.30;;;21.80;16.00;;;;;;5051344;28;20250;-57
2023/06/24 07:14:20;;;;;;;8.00;7.60;;;21.90;16.10;;;;;;5052870;28;20211;-58
2023/06/24 07:16:46;;;;;;;7.77;7.27;;;22.00;15.80;;;;;;5052993;28;20172;-58
2023/06/24 07:19:12;;;;;;;7.97;7.37;;;22.00;15.90;;;;;;5051813;28;20176;-58
2023/06/24 07:21:39;;;;;;;8.10;7.60;;;22.10;15.40;;;;;;5047569;28;20214;-58
2023/06/24 07:24:05;;;;;;;7.20;6.80;;;22.00;14.50;;;;;;5050028;28;20186;-58
2023/06/24 07:26:31;;;;;;;7.50;7.00;;;22.10;14.60;;;;;;5050435;28;20764;-58
2023/06/24 07:28:58;;;;;;;7.50;7.10;;;22.10;14.50;;;;;;5050943;28;20420;-58
2023/06/24 07:31:24;;;;;;;7.40;7.00;;;22.10;14.60;;;;;;5050238;28;20209;-58
2023/06/24 07:33:49;;;;;;;7.93;7.53;;;22.10;14.50;;;;;;5050467;28;20575;-58
2023/06/24 07:36:15;;;;;;;8.43;7.93;;;22.20;14.60;;;;;;5050200;28;20621;-58
2023/06/24 07:38:41;;;;;;;7.37;6.97;;;22.30;14.40;;;;;;5050843;28;20172;-58
2023/06/24 07:41:06;;;;;;;7.07;6.67;;;22.40;13.90;;;;;;5050145;28;20186;-58
2023/06/24 07:43:32;;;;;;;8.47;7.90;;;22.40;14.10;;;;;;5050393;28;20180;-58
2023/06/24 07:45:58;;;;;;;7.60;7.10;;;22.40;13.60;;;;;;5050575;28;20560;-58
2023/06/24 07:48:23;;;;;;;8.50;7.90;;;22.40;14.10;;;;;;5050387;28;20245;-58
2023/06/24 07:50:49;;;;;;;7.07;6.50;;;22.40;14.40;;;;;;5049690;28;20180;-58
2023/06/24 07:53:15;;;;;;;7.70;7.10;;;22.50;14.60;;;;;;5049590;28;20200;-58
2023/06/24 07:55:40;;;;;;;7.63;7.23;;;22.60;14.60;;;;;;5050439;28;20180;-58
2023/06/24 07:58:06;;;;;;;7.90;7.40;;;22.80;13.90;;;;;;5045440;28;20180;-59
2023/06/24 08:00:33;;;;;;;8.30;7.80;;;22.90;13.50;;;;;;5047163;28;20227;-59
2023/06/24 08:02:58;;;;;;;7.70;7.20;;;22.90;14.00;;;;;;5046293;28;20584;-58
2023/06/24 08:05:24;;;;;;;8.00;7.50;;;22.90;14.20;;;;;;5046216;28;20505;-58
2023/06/24 08:07:51;;;;;;;7.40;7.00;;;23.00;13.90;;;;;;5046788;28;20198;-58
2023/06/24 08:10:16;;;;;;;8.20;7.70;;;23.00;13.90;;;;;;5045993;28;20652;-58
2023/06/24 08:12:42;;;;;;;7.57;7.13;;;23.00;13.70;;;;;;5046312;28;20435;-58
2023/06/24 08:15:08;;;;;;;8.10;7.47;;;23.00;14.30;;;;;;5046668;28;20177;-58
2023/06/24 08:17:34;;;;;;;7.37;6.97;;;23.10;13.90;;;;;;5030383;28;20545;-58
2023/06/24 08:20:01;;;;;;;7.30;6.90;;;23.20;13.50;;;;;;5046479;28;20419;-58
2023/06/24 08:22:26;;;;;;;8.27;7.63;;;23.20;13.40;;;;;;5046484;28;20203;-58
2023/06/24 08:24:52;;;;;;;7.53;7.13;;;23.30;13.60;;;;;;5046021;28;20419;-59
2023/06/24 08:27:17;;;;;;;8.20;7.60;;;23.30;13.30;;;;;;5046247;28;20193;-59
2023/06/24 08:29:43;;;;;;;7.50;7.10;;;23.30;13.20;;;;;;5046644;28;20180;-58
2023/06/24 08:32:09;;;;;;;7.80;7.40;;;23.40;13.00;;;;;;5045955;28;20187;-59
2023/06/24 08:34:35;;;;;;;8.13;7.63;;;23.50;13.20;;;;;;5046322;28;20208;-56
2023/06/24 08:37:00;;;;;;;7.50;7.00;;;23.50;12.90;;;;;;5046195;28;20415;-58
2023/06/24 08:39:26;;;;;;;7.90;7.37;;;23.70;12.80;;;;;;5045964;28;20184;-58
2023/06/24 08:41:52;;;;;;;7.77;7.27;;;23.70;12.30;;;;;;5046026;28;20573;-58
2023/06/24 08:44:19;;;;;;;7.20;6.80;;;23.70;12.70;;;;;;5046025;28;20188;-58
2023/06/24 08:46:44;;;;;;;7.03;6.73;;;23.70;12.40;;;;;;5063103;28;20413;-58
2023/06/24 08:49:22;;;;;;;7.97;7.50;;;23.80;11.90;;;;;;5068034;28;20766;-58
2023/06/24 08:51:54;;;;;;;8.23;7.83;;;23.90;11.30;;;;;;5067519;28;20261;-58
2023/06/24 08:54:21;;;;;;;7.40;7.00;;;23.90;11.30;;;;;;5069647;28;20465;-58
2023/06/24 08:56:47;;;;;;;8.77;8.20;;;23.90;11.30;;;;;;5069608;28;20414;-58
2023/06/24 08:59:12;;;;;;;8.07;7.57;;;23.90;11.30;;;;;;5069795;28;20746;-57
2023/06/24 09:01:38;;;;;;;8.20;7.60;;;23.90;11.50;;;;;;5070262;28;20228;-58
2023/06/24 09:04:04;;;;;;;7.47;7.07;;;24.10;11.10;;;;;;5051329;28;20191;-58
2023/06/24 09:06:31;;;;;;;7.83;7.43;;;24.10;10.70;;;;;;5054144;28;20902;-58
2023/06/24 09:08:57;;;;;;;7.73;7.27;;;24.10;11.10;;;;;;5054338;28;20238;-58
2023/06/24 09:11:27;;;;;;;7.80;7.20;;;24.10;10.80;;;;;;5053352;28;20453;-58
2023/06/24 09:13:57;;;;;;;7.80;7.30;;;24.10;11.10;;;;;;5054384;28;20458;-59
2023/06/24 09:16:23;;;;;;;7.67;7.27;;;24.10;11.10;;;;;;5053908;28;20421;-59
2023/06/24 09:18:50;;;;;;;7.13;6.73;;;24.10;10.70;;;;;;5054642;28;20513;-59
2023/06/24 09:21:27;;;;;;;7.13;6.73;;;24.00;10.90;;;;;;5053423;28;20414;-59
2023/06/24 09:23:56;;;;;;;7.53;7.13;;;23.90;10.50;;;;;;5054252;28;20461;-59
2023/06/24 09:26:26;;;;;;;7.90;7.40;;;23.90;11.30;;;;;;5053927;28;20511;-59
2023/06/24 09:28:52;;;;;;;7.63;7.20;;;24.20;10.10;;;;;;5054070;28;20422;-59
2023/06/24 09:31:18;;;;;;;8.47;7.77;;;24.30;9.90;;;;;;5053203;28;20430;-59
2023/06/24 09:33:44;;;;;;;7.00;6.60;;;24.60;7.40;;;;;;5053903;28;20468;-59
2023/06/24 09:36:14;;;;;;;7.70;7.10;;;24.80;7.40;;;;;;5054950;28;20875;-59
2023/06/24 09:38:44;;;;;;;6.47;6.17;;;24.80;7.90;;;;;;5053849;28;20422;-59
2023/06/24 09:41:10;;;;;;;7.23;6.73;;;24.80;7.70;;;;;;5053200;28;20422;-59
2023/06/24 09:43:39;;;;;;;7.60;6.90;;;24.80;7.40;;;;;;5053695;28;20773;-58
2023/06/24 09:46:05;;;;;;;6.17;5.77;;;24.80;7.40;;;;;;5053593;28;20429;-59
2023/06/24 09:48:33;;;;;;;6.73;6.33;;;24.90;7.50;;;;;;5053610;28;20418;-59
2023/06/24 09:51:03;;;;;;;8.00;7.30;;;25.10;6.80;;;;;;5053500;28;20461;-58
2023/06/24 09:53:34;;;;;;;7.57;6.60;;;25.10;6.80;;;;;;5053118;28;20466;-61
2023/06/24 09:56:02;;;;;;;7.27;6.87;;;25.20;6.50;;;;;;5053415;28;20449;-61
2023/06/24 09:58:36;;;;;;;7.20;6.70;;;25.40;6.70;;;;;;5053341;28;20480;-61
2023/06/24 10:01:04;;;;;;;6.50;6.20;;;25.70;6.10;;;;;;5053287;28;20419;-61
2023/06/24 10:03:32;;;;;;;7.50;7.00;;;25.90;5.00;;;;;;5053139;28;20424;-61
2023/06/24 10:05:59;;;;;;;7.80;7.30;;;26.10;4.50;;;;;;5053353;28;20488;-61
2023/06/24 10:08:26;;;;;;;6.70;6.20;;;26.10;5.00;;;;;;5053117;28;20425;-61
2023/06/24 10:10:52;;;;;;;7.23;6.83;;;26.20;5.30;;;;;;5053120;28;20438;-61
2023/06/24 10:13:18;;;;;;;7.07;6.67;;;26.30;5.50;;;;;;5051362;28;20549;-61
2023/06/24 10:15:44;;;;;;;6.47;6.17;;;26.40;5.00;;;;;;5053152;28;20176;-61
2023/06/24 10:18:32;;;;;;;7.03;6.53;;;26.50;5.20;;;;;;5052971;28;20425;-61
2023/06/24 10:20:58;;;;;;;7.00;6.50;;;26.50;4.20;;;;;;5052963;28;20446;-61
2023/06/24 10:23:42;;;;;;;7.83;7.33;;;26.70;3.40;;;;;;5052326;28;20425;-59
2023/06/24 10:26:41;;;;;;;6.97;6.37;;;26.90;4.00;;;;;;5052622;28;20830;-58
2023/06/24 10:29:06;;;;;;;6.67;6.23;;;26.90;3.90;;;;;;5053126;28;20505;-57
2023/06/24 10:31:44;;;;;;;6.10;5.80;;;27.00;4.10;;;;;;5052528;28;20454;-58
2023/06/24 10:34:19;;;;;;;7.50;7.10;;;26.90;3.60;;;;;;5052646;28;20223;-61
2023/06/24 10:36:58;;;;;;;7.50;7.00;;;26.90;3.80;;;;;;5052932;28;20421;-59
2023/06/24 10:40:00;;;;;;;7.47;7.00;;;26.80;3.70;;;;;;5052807;28;20418;-59
2023/06/24 10:42:45;;;;;;;7.73;7.33;;;26.80;3.90;;;;;;5030834;28;20913;-59
2023/06/24 10:45:13;;;;;;;7.07;6.77;;;26.80;3.90;;;;;;5052966;28;20426;-59
2023/06/24 10:47:43;;;;;;;7.30;7.00;;;27.00;2.90;;;;;;5052818;28;20422;-59
2023/06/24 10:50:11;;;;;;;7.67;7.00;;;27.10;2.70;;;;;;5052807;28;20419;-59
2023/06/24 10:52:42;;;;;;;7.70;7.30;;;27.00;3.20;;;;;;5051980;28;20903;-59
2023/06/24 10:55:08;;;;;;;6.97;6.40;;;27.10;2.90;;;;;;5053028;28;20786;-60
2023/06/24 10:57:34;;;;;;;7.27;6.90;;;27.30;1.80;;;;;;5052190;28;20480;-59
2023/06/24 11:00:03;;;;;;;7.03;6.63;;;27.30;1.30;;;;;;5052527;28;20907;-59
2023/06/24 11:02:28;;;;;;;7.90;6.27;;;27.20;1.30;;;;;;5051751;28;20419;-60
2023/06/24 11:04:57;;;;;;;6.07;5.80;;;27.20;1.70;;;;;;5052130;28;20426;-60
2023/06/24 11:07:34;;;;;;;6.57;6.17;;;27.10;1.30;;;;;;5052441;28;20275;-60
2023/06/24 11:10:14;;;;;;;6.77;6.37;;;27.00;1.70;;;;;;5052263;28;20430;-60
2023/06/24 11:12:41;;;;;;;6.90;6.50;;;26.90;1.50;;;;;;5048079;28;20430;-60
2023/06/24 11:15:08;;;;;;;6.47;6.00;;;27.10;1.20;;;;;;5042486;28;20415;-60
2023/06/24 11:17:35;;;;;;;5.90;5.60;;;27.20;1.00;;;;;;5051460;28;20418;-58
2023/06/24 11:20:01;;;;;;;6.23;5.93;;;27.20;1.10;;;;;;5051122;28;20422;-56
2023/06/24 11:22:28;;;;;;;6.60;6.10;;;27.10;1.40;;;;;;5050630;28;20513;-57
2023/06/24 11:24:54;;;;;;;6.40;6.10;;;27.00;1.00;;;;;;5050864;28;20818;-57
2023/06/24 11:27:28;;;;;;;7.20;6.80;;;26.90;1.00;;;;;;5050893;28;20467;-58
2023/06/24 11:29:55;;;;;;;7.33;6.67;;;26.90;1.20;;;;;;5050739;28;20476;-59
2023/06/24 11:32:22;;;;;;;5.77;5.47;;;26.90;1.40;;;;;;5050470;28;20437;-58
2023/06/24 11:34:48;;;;;;;6.60;6.00;;;26.70;2.00;;;;;;5050562;28;20458;-57
2023/06/24 11:37:18;;;;;;;7.17;6.70;;;26.60;1.40;;;;;;5045366;28;20793;-58
2023/06/24 11:39:44;;;;;;;6.20;5.90;;;26.60;1.00;;;;;;5047402;28;20423;-58
2023/06/24 11:42:11;;;;;;;8.23;7.70;;;26.70;1.00;;;;;;5031484;28;20443;-58
2023/06/24 11:44:43;;;;;;;6.57;6.17;;;26.90;1.20;;;;;;5046873;28;20427;-57
2023/06/24 11:47:10;;;;;;;6.50;6.20;;;26.90;1.00;;;;;;5047131;28;20427;-58
2023/06/24 11:49:53;;;;;;;7.20;6.80;;;27.00;1.00;;;;;;5047337;28;20587;-57
2023/06/24 11:52:19;;;;;;;6.80;6.40;;;27.10;1.00;;;;;;5046663;28;20911;-58
2023/06/24 11:54:45;;;;;;;6.57;6.17;;;27.10;1.00;;;;;;5047155;28;20978;-57
2023/06/24 11:57:12;;;;;;;6.30;6.00;;;27.20;1.00;;;;;;5046738;28;20427;-57
2023/06/24 11:59:38;;;;;;;6.67;6.33;;;27.00;1.00;;;;;;5046780;28;20429;-58
2023/06/24 12:02:04;;;;;;;7.70;7.10;;;26.90;1.00;;;;;;5031002;28;20506;-59
2023/06/24 12:04:31;;;;;;;7.50;6.87;;;26.90;1.10;;;;;;5047945;28;20510;-56
2023/06/24 12:06:58;;;;;;;6.10;5.80;;;26.80;1.70;;;;;;5047555;28;20177;-56
2023/06/24 12:09:24;;;;;;;6.30;6.00;;;26.70;1.10;;;;;;5047635;28;20411;-57
2023/06/24 12:11:50;;;;;;;6.10;5.70;;;26.70;1.00;;;;;;5047116;28;21042;-57
2023/06/24 12:14:15;;;;;;;6.20;5.90;;;26.90;1.30;;;;;;5030409;28;20471;-57
2023/06/24 12:16:41;;;;;;;6.67;6.23;;;26.90;1.00;;;;;;5030881;28;20407;-58
2023/06/24 12:19:08;;;;;;;6.13;5.70;;;27.10;1.00;;;;;;5047581;28;20588;-58
2023/06/24 12:21:34;;;;;;;6.10;5.70;;;26.90;1.00;;;;;;5047173;28;20691;-58
2023/06/24 12:24:00;;;;;;;6.30;6.00;;;26.90;1.00;;;;;;5047720;28;20502;-58
2023/06/24 12:26:26;;;;;;;5.77;5.47;;;26.90;1.00;;;;;;5047784;28;20426;-60
2023/06/24 12:28:56;;;;;;;5.63;5.33;;;26.70;1.00;;;;;;5046079;28;20431;-56
2023/06/24 12:31:22;;;;;;;6.53;6.20;;;26.60;1.00;;;;;;5044962;28;20564;-57
2023/06/24 12:33:47;;;;;;;5.47;5.17;;;26.50;1.00;;;;;;5045640;28;20470;-57
2023/06/24 12:36:13;;;;;;;6.50;6.10;;;26.60;1.00;;;;;;5048343;28;20172;-58
2023/06/24 12:38:38;;;;;;;6.50;6.20;;;26.90;1.00;;;;;;5049650;28;20210;-58
2023/06/24 12:41:04;;;;;;;6.30;6.00;;;27.00;1.00;;;;;;5049411;28;20694;-59
2023/06/24 12:43:30;;;;;;;6.77;6.37;;;27.00;1.00;;;;;;5049558;28;20187;-61